Time;durP1;ratioP1;P1;durP2;ratioP2;P2;SDS_P1;SDS_P2;PMS_P1;PMS_P2;Temp;Humidity;BMP_temperature;BMP_pressure;BME280_temperature;BME280_humidity;BME280_pressure;Samples;Min_cycle;Max_cycle;Signal;HPM_P1;HPM_P2
2022/07/13 00:00:58;;;;;;;0.10;0.10;;;22.60;67.10;;;24.02;57.53;102064.75;2015819;29;20082;-61
2022/07/13 00:02:01;;;;;;;0.00;0.00;;;22.60;67.10;;;24.01;57.45;102066.72;2016427;29;20461;-62
2022/07/13 00:03:05;;;;;;;0.10;0.10;;;22.60;67.10;;;23.99;57.44;102062.81;2016917;29;20053;-63
2022/07/13 00:04:08;;;;;;;0.10;0.10;;;22.60;67.10;;;23.96;57.52;102064.34;2015308;29;20088;-62
2022/07/13 00:05:12;;;;;;;0.10;0.10;;;22.60;67.10;;;23.96;57.30;102064.34;2021668;29;20710;-62
2022/07/13 00:06:14;;;;;;;0.00;0.00;;;22.60;67.10;;;23.95;57.38;102053.72;2019696;29;20127;-62
2022/07/13 00:07:19;;;;;;;0.10;0.10;;;22.60;67.00;;;23.95;57.60;102060.03;2013433;29;20065;-62
2022/07/13 00:08:22;;;;;;;0.00;0.00;;;22.60;66.90;;;23.95;57.40;102057.28;2015826;29;20068;-64
2022/07/13 00:09:25;;;;;;;0.10;0.10;;;22.60;66.80;;;23.95;57.30;102053.72;2015914;29;20099;-61
2022/07/13 00:10:29;;;;;;;0.00;0.00;;;22.60;66.80;;;23.96;57.39;102050.56;2015465;29;20064;-62
2022/07/13 00:11:33;;;;;;;0.10;0.10;;;22.60;66.80;;;23.98;57.21;102053.75;2015860;29;20789;-62
2022/07/13 00:12:36;;;;;;;0.10;0.10;;;22.60;66.90;;;23.90;57.20;102030.09;2016232;29;20564;-61
2022/07/13 00:13:39;;;;;;;0.00;0.00;;;22.60;66.90;;;24.02;57.26;102042.69;2013534;29;20052;-64
2022/07/13 00:14:42;;;;;;;0.00;0.00;;;22.60;67.00;;;24.00;57.22;102040.34;2016091;29;20095;-62
2022/07/13 00:15:46;;;;;;;0.17;0.17;;;22.50;67.00;;;24.01;57.26;102035.56;2014041;29;20057;-62
2022/07/13 00:16:49;;;;;;;0.00;0.00;;;22.60;67.20;;;24.00;57.24;102037.56;2015401;29;20045;-62
2022/07/13 00:17:54;;;;;;;0.10;0.10;;;22.60;67.20;;;23.97;57.34;102037.59;2016181;29;20061;-63
2022/07/13 00:18:58;;;;;;;0.10;0.10;;;22.50;67.80;;;23.94;57.52;102041.91;2016277;29;20752;-62
2022/07/13 00:20:02;;;;;;;0.10;0.10;;;22.60;67.10;;;23.93;57.47;102045.84;2015195;29;20057;-64
2022/07/13 00:21:09;;;;;;;0.10;0.10;;;22.60;67.00;;;23.92;57.69;102041.53;2014935;29;20065;-62
2022/07/13 00:22:13;;;;;;;0.10;0.10;;;22.50;66.80;;;23.92;57.27;102037.97;2013745;29;20136;-62
2022/07/13 00:23:16;;;;;;;0.10;0.10;;;22.50;66.80;;;23.91;57.29;102036.41;2015105;29;20056;-62
2022/07/13 00:24:20;;;;;;;0.10;0.10;;;22.50;66.90;;;23.89;57.22;102039.56;2014919;29;20053;-62
2022/07/13 00:25:23;;;;;;;0.03;0.03;;;22.40;67.00;;;23.85;57.35;102030.50;2015237;29;20104;-62
2022/07/13 00:26:26;;;;;;;0.10;0.10;;;22.30;67.00;;;23.82;57.47;102023.06;2014502;29;20072;-62
2022/07/13 00:27:29;;;;;;;0.10;0.10;;;22.30;67.30;;;23.78;57.35;102025.06;2015803;29;20513;-63
2022/07/13 00:28:34;;;;;;;0.00;0.00;;;22.20;67.50;;;23.77;57.52;102025.47;2012797;29;20052;-62
2022/07/13 00:29:37;;;;;;;0.00;0.00;;;22.20;67.80;;;23.75;57.78;102017.59;2015087;29;20053;-62
2022/07/13 00:30:41;;;;;;;0.00;0.00;;;22.20;67.80;;;23.71;57.71;102025.06;2014927;29;20063;-62
2022/07/13 00:31:49;;;;;;;0.00;0.00;;;22.20;67.80;;;23.67;57.89;102016.81;2015128;29;20097;-65
2022/07/13 00:32:54;;;;;;;0.10;0.10;;;22.20;67.90;;;23.68;57.62;102023.13;2015393;29;20139;-62
2022/07/13 00:33:57;;;;;;;0.10;0.10;;;22.10;67.80;;;23.66;57.90;102013.69;2015302;29;20064;-62
2022/07/13 00:35:00;;;;;;;0.10;0.10;;;22.10;67.80;;;23.61;57.58;102006.59;2013526;29;20049;-62
2022/07/13 00:36:03;;;;;;;0.10;0.10;;;22.10;67.90;;;23.58;58.05;102007.41;2014830;29;20529;-62
2022/07/13 00:37:07;;;;;;;0.10;0.10;;;22.10;67.90;;;23.54;57.95;102009.41;2014393;29;20049;-63
2022/07/13 00:38:12;;;;;;;0.10;0.10;;;22.10;68.10;;;23.50;57.95;102016.88;2013129;29;20578;-62
2022/07/13 00:39:15;;;;;;;0.10;0.10;;;22.00;68.00;;;23.44;58.02;102007.47;2015820;29;20132;-62
2022/07/13 00:40:20;;;;;;;0.10;0.10;;;22.00;68.10;;;23.42;58.39;102013.38;2014337;29;20528;-63
2022/07/13 00:41:23;;;;;;;0.00;0.00;;;22.00;68.20;;;23.40;58.35;102006.69;2013558;29;20670;-62
2022/07/13 00:42:27;;;;;;;0.10;0.08;;;22.00;68.20;;;23.39;58.17;102007.88;2015658;29;20064;-62
2022/07/13 00:43:29;;;;;;;0.10;0.10;;;22.00;68.20;;;23.36;58.66;102006.72;2014020;29;20556;-63
2022/07/13 00:44:33;;;;;;;0.10;0.10;;;22.00;68.20;;;23.35;58.67;102007.91;2014361;29;20841;-62
2022/07/13 00:45:35;;;;;;;0.13;0.10;;;22.00;68.20;;;23.33;58.54;102004.75;2015594;29;20064;-62
2022/07/13 00:46:42;;;;;;;0.05;0.05;;;22.00;68.20;;;23.30;58.46;101997.28;2013670;29;20085;-62
2022/07/13 00:47:48;;;;;;;0.10;0.10;;;22.00;68.30;;;23.29;58.70;101994.94;2014762;29;20053;-62
2022/07/13 00:48:52;;;;;;;0.10;0.10;;;22.00;68.30;;;23.31;58.46;101989.78;2015187;29;20056;-62
2022/07/13 00:49:57;;;;;;;0.10;0.10;;;22.00;68.30;;;23.29;58.48;101989.41;2013674;29;20092;-63
2022/07/13 00:51:00;;;;;;;0.00;0.00;;;22.00;68.30;;;23.29;58.67;101983.91;2015135;29;20053;-62
2022/07/13 00:52:04;;;;;;;0.10;0.10;;;21.90;68.40;;;23.29;58.32;101981.16;2014522;29;20088;-62
2022/07/13 00:53:07;;;;;;;0.00;0.00;;;21.90;68.40;;;23.31;58.45;101992.53;2014203;29;20060;-63
2022/07/13 00:54:11;;;;;;;0.08;0.08;;;21.90;68.40;;;23.30;58.72;101982.72;2014214;29;20045;-63
2022/07/13 00:55:15;;;;;;;0.00;0.00;;;21.90;68.50;;;23.30;58.51;101986.25;2014922;29;20053;-63
2022/07/13 00:56:19;;;;;;;0.00;0.00;;;21.90;68.50;;;23.19;58.42;101966.19;2015364;29;20502;-63
2022/07/13 00:57:22;;;;;;;0.00;0.00;;;21.90;68.60;;;23.28;58.47;101977.59;2012874;29;20145;-62
2022/07/13 00:58:30;;;;;;;0.10;0.10;;;21.90;68.60;;;23.26;58.85;101979.19;2015397;29;20092;-63
2022/07/13 00:59:35;;;;;;;0.08;0.00;;;21.90;68.60;;;23.24;58.54;101979.56;2015650;29;20068;-63
2022/07/13 01:00:39;;;;;;;0.10;0.10;;;21.90;68.60;;;23.19;58.69;101966.19;2014747;29;20053;-64
2022/07/13 01:01:41;;;;;;;0.00;0.00;;;21.90;68.50;;;23.24;58.69;101976.00;2014396;29;20064;-61
2022/07/13 01:02:47;;;;;;;0.10;0.10;;;21.90;68.50;;;23.23;58.71;101974.44;2015624;29;20506;-62
2022/07/13 01:03:52;;;;;;;0.10;0.10;;;21.90;68.50;;;23.24;58.69;101967.75;2019833;29;20060;-62
2022/07/13 01:04:55;;;;;;;0.10;0.10;;;21.90;68.60;;;23.22;58.99;101979.16;2021444;29;20096;-62
2022/07/13 01:06:00;;;;;;;0.10;0.10;;;21.90;68.50;;;23.19;58.44;101970.91;2015546;29;20049;-63
2022/07/13 01:07:04;;;;;;;0.10;0.10;;;21.90;68.50;;;23.23;58.75;101972.47;2014696;29;20061;-63
2022/07/13 01:08:08;;;;;;;0.10;0.10;;;21.90;68.50;;;23.25;58.59;101970.13;2006059;29;20049;-63
2022/07/13 01:09:10;;;;;;;0.00;0.00;;;21.90;68.50;;;23.26;58.73;101968.94;2005328;29;20518;-63
2022/07/13 01:10:15;;;;;;;0.00;0.00;;;21.90;68.40;;;23.27;58.69;101964.22;2014531;29;20053;-63
2022/07/13 01:11:17;;;;;;;0.10;0.10;;;22.00;68.50;;;23.29;58.75;101967.38;2015464;29;20060;-64
2022/07/13 01:12:22;;;;;;;0.10;0.10;;;22.00;68.50;;;23.29;58.73;101961.84;2013663;29;20406;-63
2022/07/13 01:13:26;;;;;;;0.00;0.00;;;22.00;68.40;;;23.28;58.82;101963.03;2014861;29;20517;-63
2022/07/13 01:14:31;;;;;;;0.10;0.10;;;22.00;68.40;;;23.28;58.75;101960.25;2014970;29;20049;-64
2022/07/13 01:15:34;;;;;;;0.10;0.10;;;22.00;68.40;;;23.28;58.83;101963.81;2013777;29;20541;-63
2022/07/13 01:16:38;;;;;;;0.10;0.10;;;22.00;68.40;;;23.28;58.68;101954.75;2014447;29;20049;-63
2022/07/13 01:17:41;;;;;;;0.10;0.10;;;22.00;68.40;;;23.27;58.93;101961.47;2013890;29;20496;-63
2022/07/13 01:18:45;;;;;;;0.00;0.00;;;22.00;68.40;;;23.25;58.69;101959.09;2015413;29;20604;-63
2022/07/13 01:19:51;;;;;;;0.10;0.10;;;22.00;68.40;;;23.25;58.49;101961.03;2004338;29;20060;-63
2022/07/13 01:20:55;;;;;;;0.00;0.00;;;22.00;68.30;;;23.23;58.62;101952.41;2005953;29;20116;-63
2022/07/13 01:22:02;;;;;;;0.10;0.10;;;22.00;68.40;;;23.24;58.59;101959.47;2015220;29;20581;-63
2022/07/13 01:23:11;;;;;;;0.00;0.00;;;21.90;68.40;;;23.23;58.88;101952.41;2014762;29;20425;-63
2022/07/13 01:24:14;;;;;;;0.10;0.10;;;22.00;68.50;;;23.23;58.79;101955.16;2015047;29;20132;-63
2022/07/13 01:25:19;;;;;;;0.05;0.05;;;22.00;68.50;;;23.20;59.02;101953.97;2014994;29;20053;-63
2022/07/13 01:26:22;;;;;;;0.10;0.10;;;21.90;68.40;;;23.19;59.07;101948.88;2013853;29;20045;-63
2022/07/13 01:27:26;;;;;;;0.00;0.00;;;21.90;68.50;;;23.18;58.79;101947.31;2014969;29;20136;-63
2022/07/13 01:28:28;;;;;;;0.10;0.10;;;21.90;68.40;;;23.20;58.82;101947.66;2014914;29;20479;-63
2022/07/13 01:29:31;;;;;;;0.00;0.00;;;21.90;68.50;;;23.19;58.64;101946.91;2015045;29;20087;-63
2022/07/13 01:30:34;;;;;;;0.10;0.10;;;21.90;68.50;;;23.19;58.83;101949.66;2014981;29;20059;-63
2022/07/13 01:31:39;;;;;;;0.10;0.10;;;21.90;68.50;;;23.19;59.23;101937.84;2013924;29;20061;-63
2022/07/13 01:32:44;;;;;;;0.10;0.10;;;21.90;68.60;;;23.18;59.04;101937.03;2015196;29;20053;-63
2022/07/13 01:33:47;;;;;;;0.10;0.10;;;21.90;68.60;;;23.18;58.85;101930.78;2014059;29;20540;-63
2022/07/13 01:34:50;;;;;;;0.08;0.08;;;21.90;68.50;;;23.17;58.97;101931.94;2013188;29;20049;-63
2022/07/13 01:35:55;;;;;;;0.08;0.08;;;21.90;68.50;;;23.18;59.21;101933.53;2015201;29;20155;-63
2022/07/13 01:36:59;;;;;;;0.10;0.10;;;22.00;68.60;;;23.10;59.31;101915.44;2015146;29;20262;-63
2022/07/13 01:38:02;;;;;;;0.10;0.10;;;22.00;68.50;;;23.22;58.95;101928.78;2014786;29;20052;-63
2022/07/13 01:39:06;;;;;;;0.00;0.00;;;22.00;68.40;;;23.22;59.30;101920.50;2014840;29;20504;-63
2022/07/13 01:40:11;;;;;;;0.10;0.10;;;22.00;68.30;;;23.22;59.00;101929.56;2005358;29;20050;-63
2022/07/13 01:41:14;;;;;;;0.10;0.10;;;22.00;68.30;;;23.22;59.00;101917.75;2007094;29;20062;-63
2022/07/13 01:42:18;;;;;;;0.10;0.10;;;22.00;68.30;;;23.21;59.01;101911.44;2013833;29;20060;-60
2022/07/13 01:43:27;;;;;;;0.10;0.10;;;22.00;68.30;;;23.21;59.06;101910.69;2014995;29;20064;-62
2022/07/13 01:44:30;;;;;;;0.13;0.13;;;22.00;68.20;;;23.23;59.09;101913.81;2014585;29;20092;-62
2022/07/13 01:45:33;;;;;;;0.08;0.08;;;21.90;68.20;;;23.22;58.93;101913.03;2016243;29;20056;-62
2022/07/13 01:46:38;;;;;;;0.10;0.10;;;22.00;68.30;;;23.23;58.72;101913.81;2014782;29;20060;-62
2022/07/13 01:47:42;;;;;;;0.10;0.10;;;22.00;68.40;;;23.24;58.79;101918.16;2013941;29;20049;-62
2022/07/13 01:48:46;;;;;;;0.05;0.05;;;22.00;68.40;;;23.23;58.86;101916.59;2005495;29;20057;-62
2022/07/13 01:49:48;;;;;;;0.10;0.10;;;22.00;68.40;;;23.23;59.13;101909.09;2011808;29;20057;-62
2022/07/13 01:50:51;;;;;;;0.00;0.00;;;22.00;68.50;;;23.27;59.29;101911.84;2021622;29;20092;-62
2022/07/13 01:51:54;;;;;;;0.00;0.00;;;22.00;68.50;;;23.29;59.21;101918.53;2017414;29;20068;-62
2022/07/13 01:52:58;;;;;;;0.00;0.00;;;22.00;68.40;;;23.31;58.79;101918.13;2019120;29;20096;-62
2022/07/13 01:54:02;;;;;;;0.10;0.10;;;22.00;68.30;;;23.27;58.67;101900.84;2015876;29;20422;-62
2022/07/13 01:55:12;;;;;;;0.10;0.10;;;22.10;68.40;;;23.37;58.62;101914.56;2016011;29;20525;-62
2022/07/13 01:56:16;;;;;;;0.00;0.00;;;22.10;68.20;;;23.41;58.37;101920.06;2010420;29;20049;-62
2022/07/13 01:57:22;;;;;;;0.10;0.10;;;22.10;68.20;;;23.41;58.46;101920.06;2010300;29;20543;-62
2022/07/13 01:58:26;;;;;;;0.08;0.08;;;22.10;68.10;;;23.45;58.31;101926.34;2015552;29;20089;-63
2022/07/13 01:59:29;;;;;;;0.00;0.00;;;22.10;68.00;;;23.49;58.38;101932.63;2009515;29;20493;-62
2022/07/13 02:00:31;;;;;;;0.10;0.10;;;22.10;68.00;;;23.51;58.26;101931.03;2010695;29;20056;-62
2022/07/13 02:01:35;;;;;;;0.10;0.10;;;22.10;68.00;;;23.52;58.12;101921.56;2016883;29;20136;-63
2022/07/13 02:02:38;;;;;;;0.10;0.10;;;22.10;67.90;;;23.54;58.07;101929.44;2022835;29;20139;-63
2022/07/13 02:03:43;;;;;;;0.10;0.10;;;22.10;67.90;;;23.57;58.06;101928.63;2013187;29;20111;-62
2022/07/13 02:04:46;;;;;;;0.10;0.10;;;22.10;67.90;;;23.56;58.19;101925.09;2007016;29;20536;-63
2022/07/13 02:05:49;;;;;;;0.10;0.10;;;22.20;68.00;;;23.56;57.99;101932.59;2016875;29;21093;-62
2022/07/13 02:06:53;;;;;;;0.10;0.10;;;22.20;68.00;;;23.57;58.42;101929.44;2014181;29;20045;-62
2022/07/13 02:07:56;;;;;;;0.10;0.10;;;22.20;68.00;;;23.58;58.09;101922.72;2008834;29;20064;-62
2022/07/13 02:09:03;;;;;;;0.10;0.10;;;22.20;68.00;;;23.57;58.14;101918.41;2018346;29;20469;-62
2022/07/13 02:10:09;;;;;;;0.10;0.10;;;22.20;67.90;;;23.59;58.19;101927.03;2014083;29;20053;-63
2022/07/13 02:11:15;;;;;;;0.10;0.10;;;22.20;68.40;;;23.60;57.90;101919.56;1998949;29;20057;-62
2022/07/13 02:12:20;;;;;;;0.00;0.00;;;22.20;67.80;;;23.63;58.02;101926.25;2013993;29;20092;-62
2022/07/13 02:13:22;;;;;;;0.10;0.10;;;22.20;67.80;;;23.62;57.80;101925.47;2021166;29;20575;-63
2022/07/13 02:14:26;;;;;;;0.10;0.10;;;22.20;67.80;;;23.54;58.06;101908.19;2007394;29;20050;-63
2022/07/13 02:15:28;;;;;;;0.00;0.00;;;22.20;67.80;;;23.62;58.14;101919.94;2007924;29;20589;-63
2022/07/13 02:16:32;;;;;;;0.00;0.00;;;22.20;67.90;;;23.63;57.85;101916.00;2008682;29;20053;-63
2022/07/13 02:17:35;;;;;;;0.10;0.10;;;22.20;68.00;;;23.63;58.14;101916.00;2002485;29;20076;-63
2022/07/13 02:18:42;;;;;;;0.10;0.10;;;22.10;67.90;;;23.63;58.10;101918.75;2004779;29;20111;-64
2022/07/13 02:19:44;;;;;;;0.00;0.00;;;22.10;68.00;;;23.63;58.03;101912.47;2008698;29;20552;-63
2022/07/13 02:20:48;;;;;;;0.10;0.10;;;22.20;68.10;;;23.61;58.12;101912.84;2015580;29;20063;-63
2022/07/13 02:21:50;;;;;;;0.20;0.10;;;22.20;68.00;;;23.61;58.19;101912.84;2016397;29;20053;-63
2022/07/13 02:22:53;;;;;;;0.10;0.10;;;22.20;68.00;;;23.60;58.32;101911.28;2015830;29;20417;-63
2022/07/13 02:23:56;;;;;;;0.10;0.10;;;22.20;67.90;;;23.61;58.12;101912.84;2016382;29;20063;-63
2022/07/13 02:25:01;;;;;;;0.00;0.00;;;22.20;67.90;;;23.63;57.91;101904.97;2016617;29;20635;-63
2022/07/13 02:26:05;;;;;;;0.10;0.10;;;22.20;67.90;;;23.63;58.05;101904.97;2016184;29;21260;-62
2022/07/13 02:27:08;;;;;;;0.10;0.10;;;22.20;67.80;;;23.64;58.02;101907.31;2016784;29;20077;-63
2022/07/13 02:28:10;;;;;;;0.00;0.00;;;22.20;67.80;;;23.66;57.90;101904.16;2016678;29;20052;-62
2022/07/13 02:29:14;;;;;;;0.10;0.10;;;22.20;67.70;;;23.66;57.87;101898.63;2016051;29;20069;-62
2022/07/13 02:30:16;;;;;;;0.20;0.20;;;22.30;67.90;;;23.66;57.91;101903.38;2016130;29;20061;-62
2022/07/13 02:31:20;;;;;;;0.10;0.10;;;22.20;67.80;;;23.66;58.01;101898.63;2016057;29;20053;-65
2022/07/13 02:32:23;;;;;;;0.10;0.10;;;22.20;68.10;;;23.58;57.94;101891.59;2015921;29;20113;-62
2022/07/13 02:33:26;;;;;;;0.00;0.00;;;22.20;67.80;;;23.66;57.85;101897.88;2016662;29;20063;-62
2022/07/13 02:34:29;;;;;;;0.10;0.10;;;22.20;67.80;;;23.66;57.89;101895.13;2016458;29;20077;-62
2022/07/13 02:35:33;;;;;;;0.10;0.10;;;22.20;67.80;;;23.64;57.95;101896.28;2022430;29;20041;-62
2022/07/13 02:36:36;;;;;;;0.20;0.20;;;22.20;67.80;;;23.65;57.90;101894.31;2022102;29;20059;-62
2022/07/13 02:37:40;;;;;;;0.00;0.00;;;22.20;67.90;;;23.66;57.99;101893.13;2015623;29;20064;-63
2022/07/13 02:38:43;;;;;;;0.10;0.10;;;22.20;67.80;;;23.67;57.99;101885.66;2016091;29;20061;-63
2022/07/13 02:39:45;;;;;;;0.10;0.10;;;22.30;67.80;;;23.67;57.93;101883.69;2016170;29;20057;-62
2022/07/13 02:40:49;;;;;;;0.10;0.10;;;22.20;67.80;;;23.68;58.11;101890.75;2007699;29;20057;-63
2022/07/13 02:41:55;;;;;;;0.10;0.10;;;22.20;67.80;;;23.69;57.94;101878.53;1992724;29;20050;-63
2022/07/13 02:43:01;;;;;;;0.10;0.10;;;22.20;67.80;;;23.69;57.73;101875.75;2008705;29;20049;-62
2022/07/13 02:44:07;;;;;;;0.10;0.10;;;22.20;67.80;;;23.70;57.89;101874.59;2016329;29;20060;-63
2022/07/13 02:45:13;;;;;;;0.10;0.10;;;22.20;67.80;;;23.69;57.83;101870.25;2007874;29;20055;-63
2022/07/13 02:46:17;;;;;;;0.10;0.10;;;22.30;67.90;;;23.71;57.88;101865.13;2007239;29;20487;-62
2022/07/13 02:47:21;;;;;;;0.10;0.10;;;22.30;67.90;;;23.73;57.63;101879.28;2015976;29;20140;-63
2022/07/13 02:48:23;;;;;;;0.10;0.10;;;22.30;67.80;;;23.73;57.75;101878.50;2015482;29;20535;-62
2022/07/13 02:49:27;;;;;;;0.10;0.10;;;22.20;67.80;;;23.73;57.72;101871.03;2017886;29;20056;-63
2022/07/13 02:50:30;;;;;;;0.05;0.05;;;22.30;67.80;;;23.69;57.76;101870.25;2009173;29;20124;-63
2022/07/13 02:51:34;;;;;;;0.10;0.10;;;22.20;67.70;;;23.72;57.85;101879.72;1999874;29;20046;-62
2022/07/13 02:52:38;;;;;;;0.00;0.00;;;22.30;67.80;;;23.73;57.71;101873.78;2008167;29;20058;-62
2022/07/13 02:53:43;;;;;;;0.10;0.10;;;22.30;67.70;;;23.73;57.51;101876.53;1998890;29;20058;-62
2022/07/13 02:54:48;;;;;;;0.10;0.10;;;22.30;67.70;;;23.72;57.94;101869.47;1992312;29;20495;-63
2022/07/13 02:55:52;;;;;;;0.10;0.10;;;22.30;67.70;;;23.70;57.95;101866.31;2013139;29;20064;-62
2022/07/13 02:56:57;;;;;;;0.10;0.10;;;22.30;67.70;;;23.73;57.95;101870.22;2017392;29;20153;-62
2022/07/13 02:58:00;;;;;;;0.10;0.10;;;22.30;67.70;;;23.74;57.93;101877.34;2002506;29;20617;-63
2022/07/13 02:59:04;;;;;;;0.00;0.00;;;22.30;67.70;;;23.71;58.08;101867.88;2001032;29;20053;-63
2022/07/13 03:00:09;;;;;;;0.10;0.10;;;22.30;67.60;;;23.66;58.08;101862.03;2010274;29;20056;-62
2022/07/13 03:01:12;;;;;;;0.00;0.00;;;22.30;67.60;;;23.69;57.87;101873.00;2009904;29;20057;-62
2022/07/13 03:02:17;;;;;;;0.10;0.10;;;22.30;67.60;;;23.69;57.77;101873.00;1999423;29;20102;-62
2022/07/13 03:03:20;;;;;;;0.10;0.10;;;22.30;67.50;;;23.62;57.63;101856.53;1998025;29;20088;-63
2022/07/13 03:04:24;;;;;;;0.10;0.10;;;22.30;67.50;;;23.70;57.62;101882.88;2010000;29;20074;-62
2022/07/13 03:05:27;;;;;;;0.10;0.10;;;22.20;67.50;;;23.69;57.52;101878.53;2008734;29;20060;-62
2022/07/13 03:06:31;;;;;;;0.00;0.00;;;22.30;67.60;;;23.70;57.52;101882.88;2013121;29;20060;-62
2022/07/13 03:07:34;;;;;;;0.00;0.00;;;22.20;67.60;;;23.69;57.64;101878.53;2013153;29;20068;-63
2022/07/13 03:08:37;;;;;;;0.15;0.10;;;22.20;67.60;;;23.66;58.04;101871.06;2015434;29;20873;-63
2022/07/13 03:09:40;;;;;;;0.00;0.00;;;22.30;67.80;;;23.67;57.52;101878.16;2015206;29;20220;-62
2022/07/13 03:10:45;;;;;;;0.00;0.00;;;22.20;67.60;;;23.65;57.85;101880.53;2019377;29;20100;-63
2022/07/13 03:11:48;;;;;;;0.10;0.10;;;22.20;67.60;;;23.64;57.76;101865.19;2007143;29;20057;-63
2022/07/13 03:12:54;;;;;;;0.10;0.10;;;22.20;67.70;;;23.62;57.80;101870.31;2000669;29;20054;-65
2022/07/13 03:13:57;;;;;;;0.00;0.00;;;22.20;67.70;;;23.63;57.81;101875.41;1998898;29;20525;-63
2022/07/13 03:15:01;;;;;;;0.10;0.10;;;22.20;67.70;;;23.62;57.77;101864.81;1997508;29;20542;-63
2022/07/13 03:16:04;;;;;;;0.10;0.10;;;22.20;67.70;;;23.62;57.62;101870.31;2007539;29;20081;-62
2022/07/13 03:17:08;;;;;;;0.10;0.10;;;22.20;67.70;;;23.62;57.87;101867.56;2014411;29;20061;-63
2022/07/13 03:18:11;;;;;;;0.10;0.10;;;22.20;67.70;;;23.62;58.04;101870.31;2015443;29;20064;-63
2022/07/13 03:19:14;;;;;;;0.17;0.17;;;22.20;67.70;;;23.63;57.74;101868.34;2015955;29;20057;-62
2022/07/13 03:20:17;;;;;;;0.10;0.10;;;22.20;67.80;;;23.60;57.92;101867.16;2015746;29;20608;-62
2022/07/13 03:21:21;;;;;;;0.10;0.10;;;22.20;67.70;;;23.62;57.80;101867.56;2015170;29;20057;-62
2022/07/13 03:22:23;;;;;;;0.10;0.10;;;22.20;67.70;;;23.57;57.83;101862.47;2015571;29;20109;-62
2022/07/13 03:23:26;;;;;;;0.10;0.10;;;22.20;67.70;;;23.60;57.85;101870.72;2015914;29;20072;-63
2022/07/13 03:24:29;;;;;;;0.10;0.10;;;22.20;67.70;;;23.60;57.96;101861.66;2015029;29;20533;-63
2022/07/13 03:25:34;;;;;;;0.10;0.10;;;22.20;67.60;;;23.61;57.84;101868.72;2015694;29;20056;-63
2022/07/13 03:26:36;;;;;;;0.10;0.10;;;22.20;67.60;;;23.60;57.56;101867.16;2015848;29;21098;-63
2022/07/13 03:27:40;;;;;;;0.10;0.10;;;22.10;67.60;;;23.58;57.72;101859.31;2015406;29;20403;-62
2022/07/13 03:28:45;;;;;;;0.10;0.10;;;22.10;67.60;;;23.59;57.70;101854.59;2018957;29;20064;-63
2022/07/13 03:29:49;;;;;;;0.10;0.10;;;22.10;67.70;;;23.60;57.64;101856.13;2016101;29;20048;-63
2022/07/13 03:30:55;;;;;;;0.10;0.10;;;22.10;67.60;;;23.59;57.77;101860.09;2000261;29;20053;-63
2022/07/13 03:31:59;;;;;;;0.00;0.00;;;22.10;67.60;;;23.57;57.94;101856.94;2000372;29;20110;-63
2022/07/13 03:33:03;;;;;;;0.10;0.10;;;22.10;67.70;;;23.56;57.86;101860.91;2007150;29;20125;-63
2022/07/13 03:34:06;;;;;;;0.10;0.10;;;22.10;67.70;;;23.48;57.97;101853.88;2014746;29;20620;-63
2022/07/13 03:35:10;;;;;;;0.13;0.13;;;22.10;67.80;;;23.52;57.76;101862.88;2014960;29;20132;-63
2022/07/13 03:36:14;;;;;;;0.10;0.10;;;22.10;67.70;;;23.50;58.03;101868.00;2014403;29;20490;-64
2022/07/13 03:37:17;;;;;;;0.10;0.10;;;22.10;67.60;;;23.48;58.01;101862.91;2015799;29;20453;-63
2022/07/13 03:38:20;;;;;;;0.10;0.10;;;22.10;67.60;;;23.39;57.77;101848.00;2006652;29;20049;-63
2022/07/13 03:39:23;;;;;;;0.15;0.15;;;22.10;67.60;;;23.48;57.57;101867.66;1999680;29;20049;-63
2022/07/13 03:40:27;;;;;;;0.10;0.10;;;22.10;67.60;;;23.47;57.98;101869.63;2008143;29;20053;-63
2022/07/13 03:41:30;;;;;;;0.10;0.10;;;22.00;67.40;;;23.48;57.61;101875.91;2016912;29;20098;-63
2022/07/13 03:42:38;;;;;;;0.10;0.10;;;22.00;67.50;;;23.46;57.71;101879.09;2017893;29;20064;-63
2022/07/13 03:43:41;;;;;;;0.10;0.10;;;22.00;67.60;;;23.46;57.84;101861.75;2016320;29;20072;-63
2022/07/13 03:44:46;;;;;;;0.15;0.15;;;22.00;67.60;;;23.46;57.71;101865.31;2014835;29;20060;-63
2022/07/13 03:45:49;;;;;;;0.10;0.10;;;22.00;67.70;;;23.48;57.62;101860.16;2009170;29;20060;-63
2022/07/13 03:46:53;;;;;;;0.10;0.10;;;22.00;67.80;;;23.49;57.76;101866.44;2014649;29;20053;-63
2022/07/13 03:47:55;;;;;;;0.00;0.00;;;22.00;67.80;;;23.48;57.73;101860.16;2014026;29;20053;-62
2022/07/13 03:48:59;;;;;;;0.10;0.10;;;22.00;67.90;;;23.46;57.91;101861.75;1999372;29;20549;-62
2022/07/13 03:50:04;;;;;;;0.10;0.10;;;22.00;67.90;;;23.49;57.79;101869.22;2009154;29;20050;-62
2022/07/13 03:51:09;;;;;;;0.10;0.10;;;22.00;68.00;;;23.48;57.97;101864.91;2017931;29;20052;-63
2022/07/13 03:52:12;;;;;;;0.03;0.03;;;21.90;67.90;;;23.46;57.85;101865.31;2015938;29;20071;-62
2022/07/13 03:53:16;;;;;;;0.10;0.10;;;21.90;68.00;;;23.48;57.67;101867.66;2014286;29;20060;-62
2022/07/13 03:54:19;;;;;;;0.10;0.10;;;21.90;68.10;;;23.46;57.83;101873.56;2015897;29;20061;-62
2022/07/13 03:55:24;;;;;;;0.10;0.10;;;22.00;68.20;;;23.44;57.78;101864.13;2005720;29;20045;-63
2022/07/13 03:56:27;;;;;;;0.10;0.10;;;21.90;68.20;;;23.44;58.28;101875.13;2014693;29;20144;-63
2022/07/13 03:57:31;;;;;;;0.10;0.10;;;22.00;68.30;;;23.44;58.03;101864.13;2013099;29;20052;-63
2022/07/13 03:58:34;;;;;;;0.00;0.00;;;21.90;68.40;;;23.44;58.39;101866.88;2000477;29;20761;-63
2022/07/13 03:59:37;;;;;;;0.10;0.10;;;21.90;68.60;;;23.42;58.21;101863.75;2005046;29;20057;-63
2022/07/13 04:00:41;;;;;;;0.10;0.10;;;21.90;68.70;;;23.42;58.36;101877.53;2015029;29;20067;-63
2022/07/13 04:01:45;;;;;;;0.05;0.05;;;21.90;68.80;;;23.41;58.55;101864.94;2012229;29;20167;-63
2022/07/13 04:02:48;;;;;;;0.10;0.10;;;21.90;68.80;;;23.40;58.24;101869.66;1990625;29;20055;-63
2022/07/13 04:03:53;;;;;;;0.10;0.10;;;21.80;68.90;;;23.38;58.81;101869.28;2004474;29;20597;-63
2022/07/13 04:04:56;;;;;;;0.10;0.10;;;21.80;69.00;;;23.36;58.78;101868.09;2024207;29;20044;-63
2022/07/13 04:05:59;;;;;;;0.10;0.10;;;21.80;69.10;;;23.37;58.68;101864.19;2015118;29;20611;-63
2022/07/13 04:07:03;;;;;;;0.08;0.08;;;21.80;69.20;;;23.36;58.55;101873.63;2021625;29;20596;-63
2022/07/13 04:08:07;;;;;;;0.10;0.10;;;21.80;69.20;;;23.36;58.81;101876.38;2009813;29;20406;-64
2022/07/13 04:09:11;;;;;;;0.10;0.10;;;21.80;69.20;;;23.31;58.47;101869.31;1998838;29;20527;-63
2022/07/13 04:10:14;;;;;;;0.10;0.10;;;21.80;69.20;;;23.33;58.54;101871.66;1998466;29;20450;-63
2022/07/13 04:11:17;;;;;;;0.10;0.10;;;21.70;69.20;;;23.32;58.80;101864.59;2009790;29;20425;-63
2022/07/13 04:12:23;;;;;;;0.00;0.00;;;21.80;69.40;;;23.32;58.70;101865.38;2017121;29;20053;-65
2022/07/13 04:13:26;;;;;;;0.00;0.00;;;21.80;69.20;;;23.31;58.65;101868.53;2005773;29;20053;-63
2022/07/13 04:14:33;;;;;;;0.10;0.10;;;21.70;69.10;;;23.28;58.51;101867.34;2006598;29;20499;-62
2022/07/13 04:15:43;;;;;;;0.10;0.10;;;21.70;69.00;;;23.32;58.41;101867.34;2006484;29;20088;-62
2022/07/13 04:16:48;;;;;;;0.10;0.10;;;21.80;69.10;;;23.34;58.45;101864.97;2004311;29;20049;-62
2022/07/13 04:17:57;;;;;;;0.00;0.00;;;21.80;69.10;;;23.34;58.43;101864.97;1999071;29;20050;-62
2022/07/13 04:19:02;;;;;;;0.10;0.10;;;21.80;69.10;;;23.34;58.70;101859.47;2010966;29;20151;-63
2022/07/13 04:20:07;;;;;;;0.20;0.20;;;21.80;69.10;;;23.36;58.49;101868.09;2014346;29;20048;-62
2022/07/13 04:21:10;;;;;;;0.08;0.08;;;21.80;69.10;;;23.36;58.45;101871.66;2020311;29;20048;-62
2022/07/13 04:22:17;;;;;;;0.10;0.10;;;21.80;69.00;;;23.37;58.46;101872.44;2013296;29;20053;-63
2022/07/13 04:23:19;;;;;;;0.00;0.00;;;21.80;69.00;;;23.38;58.19;101871.25;2021875;29;20481;-62
2022/07/13 04:24:24;;;;;;;0.10;0.10;;;21.80;69.00;;;23.36;58.74;101862.59;2021686;29;20056;-62
2022/07/13 04:25:28;;;;;;;0.10;0.10;;;21.80;69.10;;;23.39;58.29;101875.56;2021740;29;20064;-62
2022/07/13 04:26:33;;;;;;;0.10;0.10;;;21.80;69.10;;;23.38;58.36;101874.00;2014144;29;20053;-63